Yeaman, Kentucky
Current Conditions -  °F | °C
As of 2:56 AM on Saturday 25 Oct 2014 (Local Time) from KOWB Reporting Station
Haze Haze  
Wind Chill: 52°   Ceiling: 4500
Heat Index: 52°   Visibility: 5mi
Dew Point: 51°   Wind: 6mph
Humidity: 96%   Direction: 170°S
Pressure: 30.05"   Gusts: NA
Location:  37.6216°N, 86.7165°W
Report Text: KOWB 250756Z AUTO 17005KT 5SM BR OVC045 11/11 A3005 RMK AO2 TSNO T01110105 SLP174
Loading
Personal Weather Stations






























Interactive Weather Map
Tropical Storm Tracking
New forecast layout! Learn more

10-Day Weather Forecast

Advertisements
Track Severe Weather on mobile